createdAt,value
2018-05-10T00:00:52.352Z,19.92
2018-05-10T00:03:20.527Z,19.91
2018-05-10T00:05:48.705Z,19.87
2018-05-10T00:08:16.858Z,19.87
2018-05-10T00:10:45.051Z,19.84
2018-05-10T00:13:13.214Z,19.85
2018-05-10T00:15:41.475Z,19.81
2018-05-10T00:18:09.580Z,19.79
2018-05-10T00:20:37.767Z,19.77
2018-05-10T00:23:05.954Z,19.71
2018-05-10T00:25:34.161Z,19.71
2018-05-10T00:28:02.381Z,19.73
2018-05-10T00:30:30.564Z,19.63
2018-05-10T00:32:58.775Z,19.61
2018-05-10T00:35:26.969Z,19.58
2018-05-10T00:37:55.171Z,19.56
2018-05-10T00:40:23.367Z,19.52
2018-05-10T00:42:51.587Z,19.43
2018-05-10T00:45:19.768Z,19.41
2018-05-10T00:47:47.961Z,19.40
2018-05-10T00:50:16.162Z,19.40
2018-05-10T00:52:44.318Z,19.41
2018-05-10T00:55:12.519Z,19.36
2018-05-10T00:57:40.710Z,19.31
2018-05-10T01:00:08.911Z,19.27
2018-05-10T01:02:37.074Z,19.29
2018-05-10T01:05:05.258Z,19.29
2018-05-10T01:07:33.430Z,19.25
2018-05-10T01:10:01.653Z,19.21
2018-05-10T01:12:29.839Z,19.18
2018-05-10T01:14:58.008Z,19.13
2018-05-10T01:17:26.211Z,19.09
2018-05-10T01:19:54.410Z,19.11
2018-05-10T01:22:22.619Z,19.06
2018-05-10T01:24:50.769Z,19.00
2018-05-10T01:27:18.962Z,18.93
2018-05-10T01:29:47.127Z,18.93
2018-05-10T01:32:15.309Z,18.90
2018-05-10T01:35:22.338Z,18.88
2018-05-10T01:37:50.536Z,18.85
2018-05-10T01:40:18.761Z,18.75
2018-05-10T01:42:47.160Z,18.72
2018-05-10T01:45:15.329Z,18.59
2018-05-10T01:47:43.480Z,18.55
2018-05-10T01:50:11.656Z,18.46
2018-05-10T01:52:39.842Z,18.38
2018-05-10T01:55:08.016Z,18.39
2018-05-10T01:57:36.208Z,18.28
2018-05-10T02:00:04.414Z,18.27
2018-05-10T02:02:32.651Z,18.25
2018-05-10T02:05:00.782Z,18.25
2018-05-10T02:07:28.963Z,18.22
2018-05-10T02:09:57.162Z,18.21
2018-05-10T02:12:25.388Z,18.16
2018-05-10T02:14:53.579Z,18.13
2018-05-10T02:17:21.762Z,18.08
2018-05-10T02:19:49.957Z,18.09
2018-05-10T02:22:18.170Z,18.04
2018-05-10T02:24:46.378Z,18.07
2018-05-10T02:27:14.564Z,18.05
2018-05-10T02:29:42.851Z,17.99
2018-05-10T02:32:10.983Z,17.91
2018-05-10T02:34:39.154Z,17.86
2018-05-10T02:37:07.357Z,17.79
2018-05-10T02:39:35.546Z,17.78
2018-05-10T02:42:03.762Z,17.71
2018-05-10T02:44:31.983Z,17.64
2018-05-10T02:47:00.190Z,17.66
2018-05-10T02:49:28.377Z,17.62
2018-05-10T02:51:56.616Z,17.61
2018-05-10T02:54:24.768Z,17.64
2018-05-10T02:56:52.972Z,17.55
2018-05-10T02:59:21.177Z,17.48
2018-05-10T03:01:49.341Z,17.46
2018-05-10T03:04:17.516Z,17.48
2018-05-10T03:06:45.734Z,17.52
2018-05-10T03:09:13.891Z,17.52
2018-05-10T03:11:42.110Z,17.54
2018-05-10T03:14:10.269Z,17.47
2018-05-10T03:16:38.461Z,17.42
2018-05-10T03:19:06.634Z,17.33
2018-05-10T03:21:34.844Z,17.28
2018-05-10T03:24:03.017Z,17.33
2018-05-10T03:26:31.183Z,17.41
2018-05-10T03:28:59.326Z,17.43
2018-05-10T03:31:27.522Z,17.47
2018-05-10T03:33:55.708Z,17.46
2018-05-10T03:36:23.889Z,17.46
2018-05-10T03:38:52.058Z,17.43
2018-05-10T03:41:20.251Z,17.36
2018-05-10T03:43:48.457Z,17.28
2018-05-10T03:46:16.662Z,17.24
2018-05-10T03:48:44.838Z,17.17
2018-05-10T03:51:13.036Z,17.13
2018-05-10T03:53:41.207Z,17.07
2018-05-10T03:56:09.379Z,17.05
2018-05-10T03:58:37.553Z,17.07
2018-05-10T04:01:05.740Z,17.07
2018-05-10T04:04:03.051Z,17.09
2018-05-10T04:07:08.087Z,17.10
2018-05-10T04:10:45.211Z,17.08
2018-05-10T04:13:13.397Z,16.94
2018-05-10T04:15:41.615Z,16.92
2018-05-10T04:18:09.814Z,16.85
2018-05-10T04:20:39.627Z,16.81
2018-05-10T04:23:07.798Z,16.79
2018-05-10T04:25:35.985Z,16.84
2018-05-10T04:28:04.164Z,16.85
2018-05-10T04:30:32.324Z,16.76
2018-05-10T04:33:00.503Z,16.74
2018-05-10T04:35:28.669Z,16.72
2018-05-10T04:37:56.865Z,16.77
2018-05-10T04:40:25.058Z,16.79
2018-05-10T04:42:53.267Z,16.84
2018-05-10T04:45:21.470Z,16.87
2018-05-10T04:47:49.632Z,16.88
2018-05-10T04:50:17.807Z,16.84
2018-05-10T04:52:45.997Z,16.81
2018-05-10T04:55:14.191Z,16.80
2018-05-10T04:57:42.354Z,16.82
2018-05-10T05:00:10.525Z,16.80
2018-05-10T05:02:38.756Z,16.80
2018-05-10T05:05:06.936Z,16.79
2018-05-10T05:07:35.123Z,16.73
2018-05-10T05:10:03.323Z,16.75
2018-05-10T05:12:31.518Z,16.76
2018-05-10T05:14:59.712Z,16.74
2018-05-10T05:17:27.904Z,16.73
2018-05-10T05:19:56.116Z,16.71
2018-05-10T05:22:24.303Z,16.73
2018-05-10T05:24:52.490Z,16.72
2018-05-10T05:27:20.647Z,16.70
2018-05-10T05:29:48.814Z,16.32
2018-05-10T05:32:17.024Z,16.48
2018-05-10T05:34:45.216Z,16.47
2018-05-10T05:37:13.409Z,16.32
2018-05-10T05:39:41.575Z,16.31
2018-05-10T05:42:09.792Z,16.36
2018-05-10T05:44:37.964Z,16.38
2018-05-10T05:47:06.212Z,16.43
2018-05-10T05:49:34.393Z,16.43
2018-05-10T05:52:02.556Z,16.48
2018-05-10T05:54:30.740Z,16.52
2018-05-10T05:56:58.914Z,16.48
2018-05-10T05:59:27.118Z,16.52
2018-05-10T06:01:55.264Z,16.56
2018-05-10T06:04:23.471Z,16.55
2018-05-10T06:06:51.626Z,16.60
2018-05-10T06:09:19.856Z,16.60
2018-05-10T06:11:48.091Z,16.67
2018-05-10T06:14:16.317Z,16.73
2018-05-10T06:16:44.511Z,16.78
2018-05-10T06:19:12.701Z,16.86
2018-05-10T06:21:40.873Z,16.92
2018-05-10T06:24:09.068Z,16.93
2018-05-10T06:26:37.238Z,16.90
2018-05-10T06:29:05.494Z,16.96
2018-05-10T06:31:33.668Z,16.97
2018-05-10T06:34:01.863Z,17.04
2018-05-10T06:36:30.051Z,17.06
2018-05-10T06:38:58.248Z,17.10
2018-05-10T06:41:26.463Z,17.03
2018-05-10T06:43:54.609Z,16.98
2018-05-10T06:46:22.796Z,16.98
2018-05-10T06:48:50.986Z,16.95
2018-05-10T06:51:19.182Z,16.92
2018-05-10T06:53:47.346Z,16.93
2018-05-10T06:56:15.520Z,16.93
2018-05-10T06:58:43.700Z,16.97
2018-05-10T07:01:11.884Z,16.94
2018-05-10T07:03:40.076Z,16.92
2018-05-10T07:06:08.323Z,16.94
2018-05-10T07:08:36.555Z,16.93
2018-05-10T07:11:04.707Z,16.87
2018-05-10T07:13:32.897Z,16.94
2018-05-10T07:16:01.097Z,17.13
2018-05-10T07:18:29.288Z,17.20
2018-05-10T07:20:57.525Z,17.22
2018-05-10T07:23:25.690Z,17.01
2018-05-10T07:25:53.885Z,16.99
2018-05-10T07:28:22.061Z,16.90
2018-05-10T07:30:50.228Z,16.93
2018-05-10T07:33:18.399Z,16.89
2018-05-10T07:35:46.582Z,16.86
2018-05-10T07:38:14.760Z,16.87
2018-05-10T07:40:42.935Z,16.86
2018-05-10T07:43:11.120Z,16.89
2018-05-10T07:45:39.342Z,16.94
2018-05-10T07:48:07.547Z,17.08
2018-05-10T07:50:35.752Z,17.16
2018-05-10T07:53:03.947Z,17.15
2018-05-10T07:55:32.119Z,17.13
2018-05-10T07:58:00.295Z,16.96
2018-05-10T08:00:28.466Z,16.95
2018-05-10T08:02:56.664Z,16.92
2018-05-10T08:05:24.853Z,16.86
2018-05-10T08:07:53.062Z,16.88
2018-05-10T08:10:21.249Z,16.93
2018-05-10T08:12:49.412Z,17.00
2018-05-10T08:15:17.609Z,16.90
2018-05-10T08:17:45.761Z,17.00
2018-05-10T08:20:13.935Z,17.10
2018-05-10T08:22:42.113Z,17.10
2018-05-10T08:25:10.307Z,17.14
2018-05-10T08:27:46.495Z,17.07
2018-05-10T08:30:15.017Z,16.91
2018-05-10T08:32:43.308Z,17.00
2018-05-10T08:35:11.876Z,17.04
2018-05-10T08:37:40.430Z,17.09
2018-05-10T08:40:08.766Z,17.06
2018-05-10T08:42:37.441Z,16.99
2018-05-10T08:45:06.153Z,17.02
2018-05-10T08:47:34.412Z,17.05
2018-05-10T08:50:02.768Z,17.00
2018-05-10T08:52:31.257Z,16.93
2018-05-10T08:54:59.710Z,16.95
2018-05-10T08:57:28.270Z,17.08
2018-05-10T08:59:56.656Z,17.18
2018-05-10T09:02:25.096Z,17.38
2018-05-10T09:04:53.561Z,17.54
2018-05-10T09:07:22.304Z,17.40
2018-05-10T09:09:50.967Z,17.46
2018-05-10T09:12:19.619Z,17.38
2018-05-10T09:14:49.174Z,17.41
2018-05-10T09:17:20.224Z,17.36
2018-05-10T09:19:48.469Z,17.42
2018-05-10T09:22:16.940Z,17.01
2018-05-10T09:24:48.099Z,17.17
2018-05-10T09:27:16.756Z,17.40
2018-05-10T09:29:45.286Z,17.49
2018-05-10T09:32:14.073Z,17.55
2018-05-10T09:34:42.435Z,17.45
2018-05-10T09:37:11.035Z,17.52
2018-05-10T09:39:39.421Z,17.70
2018-05-10T09:42:08.188Z,17.65
2018-05-10T09:44:36.687Z,17.57
2018-05-10T09:47:05.061Z,17.19
2018-05-10T09:49:33.609Z,17.33
2018-05-10T09:52:01.768Z,17.51
2018-05-10T09:54:30.457Z,17.81
2018-05-10T09:56:58.955Z,18.23
2018-05-10T09:59:27.250Z,19.04
2018-05-10T10:01:55.894Z,20.17
2018-05-10T10:04:24.179Z,20.46
2018-05-10T10:06:52.594Z,20.41
2018-05-10T10:09:21.873Z,19.91
2018-05-10T10:11:50.661Z,19.50
2018-05-10T10:14:19.574Z,19.15
2018-05-10T10:16:49.795Z,18.87
2018-05-10T10:19:18.348Z,18.59
2018-05-10T10:21:46.648Z,18.28
2018-05-10T10:24:14.989Z,18.23
2018-05-10T10:26:43.315Z,18.10
2018-05-10T10:29:11.709Z,18.10
2018-05-10T10:31:40.197Z,17.89
2018-05-10T10:34:08.751Z,17.68
2018-05-10T10:36:37.286Z,17.67
2018-05-10T10:39:06.855Z,17.74
2018-05-10T10:41:34.508Z,17.62
2018-05-10T10:44:03.638Z,17.53
2018-05-10T10:46:32.280Z,17.52
2018-05-10T10:49:00.954Z,17.59
2018-05-10T10:51:29.330Z,17.70
2018-05-10T10:53:57.896Z,17.78
2018-05-10T10:56:26.712Z,17.88
2018-05-10T10:58:55.131Z,17.86
2018-05-10T11:01:23.763Z,17.79
2018-05-10T11:03:52.202Z,18.00
2018-05-10T11:06:23.175Z,18.40
2018-05-10T11:08:51.679Z,18.76
2018-05-10T11:11:19.950Z,19.14
2018-05-10T11:13:48.642Z,19.13
2018-05-10T11:16:17.016Z,19.17
2018-05-10T11:18:45.579Z,19.15
2018-05-10T11:21:14.078Z,19.01
2018-05-10T11:23:42.644Z,19.18
2018-05-10T11:26:11.035Z,19.21
2018-05-10T11:28:40.632Z,19.27
2018-05-10T11:31:09.482Z,19.28
2018-05-10T11:33:39.490Z,19.33
2018-05-10T11:36:08.188Z,19.39
2018-05-10T11:38:36.913Z,19.24
2018-05-10T11:41:17.126Z,19.09
2018-05-10T11:43:44.398Z,19.14
2018-05-10T11:46:13.164Z,19.23
2018-05-10T11:48:41.726Z,19.27
2018-05-10T11:51:10.813Z,19.28
2018-05-10T11:53:39.203Z,19.29
2018-05-10T11:58:51.719Z,19.17
2018-05-10T12:01:20.259Z,19.13
2018-05-10T12:03:49.052Z,19.10
2018-05-10T12:06:18.224Z,19.08
2018-05-10T12:08:46.718Z,19.23
2018-05-10T12:11:15.752Z,19.48
2018-05-10T12:13:44.078Z,19.64
2018-05-10T12:16:12.617Z,19.79
2018-05-10T12:18:40.990Z,20.02
2018-05-10T12:21:09.417Z,20.25
2018-05-10T12:23:38.064Z,20.53
2018-05-10T12:26:06.467Z,20.65
2018-05-10T12:28:35.226Z,20.73
2018-05-10T12:31:03.666Z,20.74
2018-05-10T12:33:33.885Z,20.86
2018-05-10T12:36:02.379Z,20.88
2018-05-10T12:38:31.115Z,20.87
2018-05-10T12:40:59.661Z,20.86
2018-05-10T12:43:28.390Z,20.89
2018-05-10T12:45:56.894Z,20.97
2018-05-10T12:48:25.166Z,21.03
2018-05-10T12:50:54.114Z,21.00
2018-05-10T12:53:22.551Z,20.96
2018-05-10T12:55:50.972Z,20.99
2018-05-10T12:58:20.716Z,20.98
2018-05-10T13:00:50.009Z,20.98
2018-05-10T13:03:18.179Z,20.94
2018-05-10T13:05:46.725Z,20.79
2018-05-10T13:08:15.117Z,20.72
2018-05-10T13:10:43.398Z,20.78
2018-05-10T13:13:12.077Z,21.20
2018-05-10T13:15:40.764Z,21.60
2018-05-10T13:18:09.392Z,21.77
2018-05-10T13:20:37.796Z,21.93
2018-05-10T13:23:06.103Z,21.74
2018-05-10T13:25:34.631Z,21.66
2018-05-10T13:28:05.786Z,21.52
2018-05-10T13:30:34.151Z,21.29
2018-05-10T13:33:02.801Z,21.04
2018-05-10T13:35:31.459Z,20.81
2018-05-10T13:37:59.768Z,20.65
2018-05-10T13:40:28.462Z,20.43
2018-05-10T13:42:57.020Z,20.37
2018-05-10T13:45:25.459Z,20.52
2018-05-10T13:47:56.463Z,20.59
2018-05-10T13:50:24.830Z,20.47
2018-05-10T13:52:53.264Z,20.33
2018-05-10T13:55:21.900Z,20.52
2018-05-10T13:57:50.084Z,20.84
2018-05-10T14:00:18.478Z,21.09
2018-05-10T14:02:46.894Z,21.00
2018-05-10T14:05:15.364Z,21.05
2018-05-10T14:07:44.006Z,21.00
2018-05-10T14:10:12.733Z,21.05
2018-05-10T14:12:41.389Z,20.98
2018-05-10T14:15:09.693Z,21.05
2018-05-10T14:17:38.013Z,21.24
2018-05-10T14:20:06.440Z,21.34
2018-05-10T14:22:34.778Z,21.17
2018-05-10T14:25:03.200Z,21.12
2018-05-10T14:27:31.978Z,21.15
2018-05-10T14:30:01.257Z,21.26
2018-05-10T14:32:36.341Z,21.38
2018-05-10T14:35:04.673Z,21.40
2018-05-10T14:37:33.343Z,21.31
2018-05-10T14:40:01.726Z,21.17
2018-05-10T14:42:30.302Z,20.95
2018-05-10T14:44:58.738Z,20.69
2018-05-10T14:47:27.091Z,20.59
2018-05-10T14:49:55.767Z,20.51
2018-05-10T14:52:24.921Z,20.52
2018-05-10T14:54:53.246Z,20.50
2018-05-10T14:57:21.726Z,20.42
2018-05-10T14:59:51.092Z,20.40
2018-05-10T15:02:20.020Z,20.55
2018-05-10T15:04:50.889Z,20.66
2018-05-10T15:07:19.485Z,20.84
2018-05-10T15:09:47.923Z,21.01
2018-05-10T15:12:16.205Z,21.14
2018-05-10T15:14:44.690Z,21.11
2018-05-10T15:17:13.151Z,21.02
2018-05-10T15:19:41.561Z,20.69
2018-05-10T15:22:09.993Z,20.55
2018-05-10T15:24:38.709Z,20.48
2018-05-10T15:27:07.227Z,20.47
2018-05-10T15:29:35.843Z,20.33
2018-05-10T15:32:04.303Z,20.11
2018-05-10T15:34:33.439Z,20.12
2018-05-10T15:37:02.166Z,20.28
2018-05-10T15:39:30.450Z,20.38
2018-05-10T15:41:58.721Z,20.40
2018-05-10T15:44:27.380Z,20.39
2018-05-10T15:46:55.787Z,20.32
2018-05-10T15:49:24.566Z,20.25
2018-05-10T15:51:53.067Z,20.16
2018-05-10T15:54:21.732Z,20.22
2018-05-10T15:56:50.217Z,20.24
2018-05-10T15:59:18.814Z,20.26
2018-05-10T16:01:47.250Z,20.16
2018-05-10T16:04:15.994Z,20.04
2018-05-10T16:06:44.251Z,19.98
2018-05-10T16:09:12.394Z,19.88
2018-05-10T16:11:40.541Z,19.78
2018-05-10T16:14:08.735Z,19.76
2018-05-10T16:16:36.888Z,19.70
2018-05-10T16:19:05.104Z,19.71
2018-05-10T16:21:33.261Z,19.76
2018-05-10T16:24:01.428Z,19.80
2018-05-10T16:26:29.699Z,19.80
2018-05-10T16:28:57.794Z,19.70
2018-05-10T16:31:25.967Z,19.69
2018-05-10T16:33:54.149Z,19.65
2018-05-10T16:36:22.310Z,19.43
2018-05-10T16:38:50.500Z,19.40
2018-05-10T16:41:18.641Z,19.33
2018-05-10T16:43:46.848Z,19.29
2018-05-10T16:46:15.003Z,19.25
2018-05-10T16:48:43.184Z,19.36
2018-05-10T16:51:11.390Z,19.43
2018-05-10T16:53:39.582Z,19.45
2018-05-10T16:56:07.796Z,19.45
2018-05-10T16:58:35.973Z,19.39
2018-05-10T17:01:04.114Z,19.36
2018-05-10T17:03:32.314Z,19.36
2018-05-10T17:06:00.518Z,19.36
2018-05-10T17:08:28.709Z,19.20
2018-05-10T17:10:56.895Z,18.97
2018-05-10T17:13:25.088Z,18.69
2018-05-10T17:15:53.281Z,18.53
2018-05-10T17:18:21.491Z,18.40
2018-05-10T17:20:49.706Z,18.20
2018-05-10T17:23:17.880Z,18.07
2018-05-10T17:25:46.054Z,18.01
2018-05-10T17:28:14.208Z,17.91
2018-05-10T17:30:42.415Z,17.81
2018-05-10T17:33:10.590Z,17.83
2018-05-10T17:35:38.788Z,17.95
2018-05-10T17:38:06.961Z,18.02
2018-05-10T17:40:35.143Z,17.91
2018-05-10T17:43:03.394Z,17.79
2018-05-10T17:45:31.544Z,17.65
2018-05-10T17:47:59.733Z,17.55
2018-05-10T17:50:27.938Z,17.47
2018-05-10T17:52:56.099Z,17.30
2018-05-10T17:55:24.379Z,17.21
2018-05-10T17:57:52.447Z,17.16
2018-05-10T18:00:20.657Z,17.17
2018-05-10T18:02:48.798Z,17.04
2018-05-10T18:05:16.989Z,16.95
2018-05-10T18:07:45.131Z,16.93
2018-05-10T18:10:13.336Z,16.89
2018-05-10T18:12:41.482Z,16.86
2018-05-10T18:15:09.755Z,16.83
2018-05-10T18:17:37.922Z,16.77
2018-05-10T18:20:06.108Z,16.78
2018-05-10T18:22:34.304Z,16.82
2018-05-10T18:25:02.465Z,16.82
2018-05-10T18:27:30.632Z,16.86
2018-05-10T18:29:58.793Z,16.90
2018-05-10T18:32:26.972Z,16.87
2018-05-10T18:34:55.111Z,16.83
2018-05-10T18:37:23.305Z,16.75
2018-05-10T18:39:51.533Z,16.66
2018-05-10T18:42:19.677Z,16.60
2018-05-10T18:44:47.850Z,16.58
2018-05-10T18:47:16.005Z,16.55
2018-05-10T18:49:44.213Z,16.48
2018-05-10T18:52:12.372Z,16.34
2018-05-10T18:54:40.652Z,16.27
2018-05-10T18:57:08.739Z,16.20
2018-05-10T18:59:36.925Z,16.11
2018-05-10T19:02:05.110Z,16.06
2018-05-10T19:04:33.369Z,16.07
2018-05-10T19:07:01.504Z,16.02
2018-05-10T19:09:29.670Z,15.98
2018-05-10T19:11:57.857Z,15.94
2018-05-10T19:14:26.031Z,15.90
2018-05-10T19:16:54.211Z,15.88
2018-05-10T19:19:22.372Z,15.85
2018-05-10T19:21:50.614Z,15.84
2018-05-10T19:24:18.792Z,15.80
2018-05-10T19:26:46.984Z,15.81
2018-05-10T19:29:15.185Z,15.85
2018-05-10T19:31:43.382Z,15.82
2018-05-10T19:34:11.557Z,15.81
2018-05-10T19:36:39.736Z,15.76
2018-05-10T19:39:07.914Z,15.66
2018-05-10T19:41:36.130Z,15.58
2018-05-10T19:44:04.330Z,15.58
2018-05-10T19:46:32.524Z,15.52
2018-05-10T19:49:00.720Z,15.47
2018-05-10T19:51:28.921Z,15.51
2018-05-10T19:53:57.117Z,15.53
2018-05-10T19:56:25.264Z,15.53
2018-05-10T19:58:53.468Z,15.55
2018-05-10T20:01:21.624Z,15.55
2018-05-10T20:03:49.791Z,15.51
2018-05-10T20:06:17.992Z,15.47
2018-05-10T20:08:46.166Z,15.46
2018-05-10T20:11:14.328Z,15.42
2018-05-10T20:13:42.530Z,15.31
2018-05-10T20:16:10.684Z,15.21
2018-05-10T20:18:38.857Z,15.08
2018-05-10T20:21:07.084Z,15.03
2018-05-10T20:23:35.204Z,14.97
2018-05-10T20:26:03.486Z,14.93
2018-05-10T20:28:31.614Z,14.89
2018-05-10T20:30:59.737Z,14.80
2018-05-10T20:33:27.905Z,14.71
2018-05-10T20:35:56.093Z,14.64
2018-05-10T20:38:24.284Z,14.57
2018-05-10T20:40:52.457Z,14.49
2018-05-10T20:43:20.659Z,14.47
2018-05-10T20:45:48.834Z,14.45
2018-05-10T20:48:17.006Z,14.40
2018-05-10T20:50:45.212Z,14.36
2018-05-10T20:53:13.371Z,14.29
2018-05-10T20:55:41.557Z,14.27
2018-05-10T20:58:09.757Z,14.18
2018-05-10T21:00:37.940Z,14.12
2018-05-10T21:03:06.124Z,14.04
2018-05-10T21:05:34.284Z,13.92
2018-05-10T21:08:02.498Z,13.82
2018-05-10T21:10:30.691Z,13.72
2018-05-10T21:12:58.865Z,13.64
2018-05-10T21:15:27.059Z,13.59
2018-05-10T21:17:55.309Z,13.50
2018-05-10T21:20:23.424Z,13.47
2018-05-10T21:22:51.599Z,13.44
2018-05-10T21:25:19.767Z,13.39
2018-05-10T21:27:47.973Z,13.38
2018-05-10T21:30:16.297Z,13.36
2018-05-10T21:32:44.492Z,13.34
2018-05-10T21:35:12.666Z,13.27
2018-05-10T21:37:40.946Z,13.18
2018-05-10T21:40:09.041Z,13.12
2018-05-10T21:42:37.200Z,13.09
2018-05-10T21:45:05.404Z,13.09
2018-05-10T21:47:33.585Z,13.04
2018-05-10T21:50:04.983Z,13.00
2018-05-10T21:52:33.168Z,12.90
2018-05-10T21:55:01.342Z,12.85
2018-05-10T21:57:29.482Z,12.82
2018-05-10T21:59:57.683Z,12.77
2018-05-10T22:02:25.854Z,12.70
2018-05-10T22:04:54.024Z,12.67
2018-05-10T22:07:22.226Z,12.63
2018-05-10T22:09:50.433Z,12.59
2018-05-10T22:12:18.576Z,12.57
2018-05-10T22:14:46.761Z,12.53
2018-05-10T22:17:14.940Z,12.50
2018-05-10T22:19:43.123Z,12.45
2018-05-10T22:22:11.330Z,12.41
2018-05-10T22:24:39.487Z,12.37
2018-05-10T22:27:07.665Z,12.33
2018-05-10T22:29:36.098Z,12.30
2018-05-10T22:32:04.252Z,12.27
2018-05-10T22:34:32.421Z,12.24
2018-05-10T22:37:00.632Z,12.22
2018-05-10T22:39:28.818Z,12.18
2018-05-10T22:41:56.979Z,12.14
2018-05-10T22:44:25.216Z,12.09
2018-05-10T22:46:53.387Z,12.07
2018-05-10T22:49:21.568Z,12.00
2018-05-10T22:51:49.759Z,11.95
2018-05-10T22:54:17.932Z,11.92
2018-05-10T22:56:46.105Z,11.88
2018-05-10T22:59:14.277Z,11.87
2018-05-10T23:01:42.451Z,11.86
2018-05-10T23:04:10.787Z,11.83
2018-05-10T23:06:38.992Z,11.77
2018-05-10T23:09:07.185Z,11.73
2018-05-10T23:11:35.354Z,11.65
2018-05-10T23:14:03.524Z,11.62
2018-05-10T23:16:31.700Z,11.61
2018-05-10T23:18:59.885Z,11.64
2018-05-10T23:21:28.040Z,11.60
2018-05-10T23:23:56.232Z,11.54
2018-05-10T23:26:24.398Z,11.45
2018-05-10T23:28:52.550Z,11.33
2018-05-10T23:31:20.737Z,11.28
2018-05-10T23:33:48.991Z,11.22
2018-05-10T23:36:17.093Z,11.16
2018-05-10T23:38:45.255Z,11.12
2018-05-10T23:41:13.444Z,11.04
2018-05-10T23:43:41.627Z,11.10
2018-05-10T23:46:09.799Z,11.10
2018-05-10T23:48:38.015Z,10.98
2018-05-10T23:51:06.175Z,10.84
2018-05-10T23:53:34.375Z,10.77
2018-05-10T23:56:02.584Z,10.75
2018-05-10T23:58:30.736Z,10.68
